sensor_id;sensor_type;location;lat;lon;timestamp;temperature;humidity
43884;DHT22;29544;52.018;5.810;2023-02-15T00:01:17;18.30;44.60
43884;DHT22;29544;52.018;5.810;2023-02-15T00:03:43;18.20;44.60
43884;DHT22;29544;52.018;5.810;2023-02-15T00:06:08;18.20;44.60
43884;DHT22;29544;52.018;5.810;2023-02-15T00:08:34;18.20;44.60
43884;DHT22;29544;52.018;5.810;2023-02-15T00:11:16;18.10;44.60
43884;DHT22;29544;52.018;5.810;2023-02-15T00:13:42;18.10;44.70
43884;DHT22;29544;52.018;5.810;2023-02-15T00:16:12;18.10;44.60
43884;DHT22;29544;52.018;5.810;2023-02-15T00:18:38;18.10;44.70
43884;DHT22;29544;52.018;5.810;2023-02-15T00:21:05;18.00;44.70
43884;DHT22;29544;52.018;5.810;2023-02-15T00:23:31;18.00;44.70
43884;DHT22;29544;52.018;5.810;2023-02-15T00:26:08;17.90;44.60
43884;DHT22;29544;52.018;5.810;2023-02-15T00:28:33;17.90;44.60
43884;DHT22;29544;52.018;5.810;2023-02-15T00:31:07;17.90;44.60
43884;DHT22;29544;52.018;5.810;2023-02-15T00:33:33;17.80;44.70
43884;DHT22;29544;52.018;5.810;2023-02-15T00:35:59;17.80;44.70
43884;DHT22;29544;52.018;5.810;2023-02-15T00:38:26;17.80;44.70
43884;DHT22;29544;52.018;5.810;2023-02-15T00:40:56;17.80;45.30
43884;DHT22;29544;52.018;5.810;2023-02-15T00:43:23;17.80;44.70
43884;DHT22;29544;52.018;5.810;2023-02-15T00:45:49;17.70;44.70
43884;DHT22;29544;52.018;5.810;2023-02-15T00:48:14;17.70;44.70
43884;DHT22;29544;52.018;5.810;2023-02-15T00:50:40;17.60;44.70
43884;DHT22;29544;52.018;5.810;2023-02-15T00:53:06;17.60;44.70
43884;DHT22;29544;52.018;5.810;2023-02-15T00:55:31;17.60;44.70
43884;DHT22;29544;52.018;5.810;2023-02-15T00:57:57;17.60;44.80
43884;DHT22;29544;52.018;5.810;2023-02-15T01:00:22;17.50;44.70
43884;DHT22;29544;52.018;5.810;2023-02-15T01:02:48;17.50;44.70
43884;DHT22;29544;52.018;5.810;2023-02-15T01:05:13;17.50;44.70
43884;DHT22;29544;52.018;5.810;2023-02-15T01:07:39;17.40;44.70
43884;DHT22;29544;52.018;5.810;2023-02-15T01:10:06;17.40;44.80
43884;DHT22;29544;52.018;5.810;2023-02-15T01:12:32;17.40;44.80
43884;DHT22;29544;52.018;5.810;2023-02-15T01:14:58;17.40;44.80
43884;DHT22;29544;52.018;5.810;2023-02-15T01:17:23;17.40;44.80
43884;DHT22;29544;52.018;5.810;2023-02-15T01:19:49;17.30;44.80
43884;DHT22;29544;52.018;5.810;2023-02-15T01:22:14;17.30;44.80
43884;DHT22;29544;52.018;5.810;2023-02-15T01:24:40;17.30;44.80
43884;DHT22;29544;52.018;5.810;2023-02-15T01:27:05;17.30;44.80
43884;DHT22;29544;52.018;5.810;2023-02-15T01:29:31;17.30;44.80
43884;DHT22;29544;52.018;5.810;2023-02-15T01:31:56;17.20;44.80
43884;DHT22;29544;52.018;5.810;2023-02-15T01:34:22;17.20;44.80
43884;DHT22;29544;52.018;5.810;2023-02-15T01:36:47;17.20;44.90
43884;DHT22;29544;52.018;5.810;2023-02-15T01:39:13;17.10;44.70
43884;DHT22;29544;52.018;5.810;2023-02-15T01:41:40;17.10;44.80
43884;DHT22;29544;52.018;5.810;2023-02-15T01:47:13;17.10;44.80
43884;DHT22;29544;52.018;5.810;2023-02-15T01:49:42;17.00;44.80
43884;DHT22;29544;52.018;5.810;2023-02-15T01:52:10;17.00;44.80
43884;DHT22;29544;52.018;5.810;2023-02-15T01:54:39;17.00;44.80
43884;DHT22;29544;52.018;5.810;2023-02-15T01:57:10;17.00;44.80
43884;DHT22;29544;52.018;5.810;2023-02-15T01:59:38;16.90;44.80
43884;DHT22;29544;52.018;5.810;2023-02-15T02:02:05;16.90;44.80
43884;DHT22;29544;52.018;5.810;2023-02-15T02:04:35;16.90;44.90
43884;DHT22;29544;52.018;5.810;2023-02-15T02:07:04;16.90;44.80
43884;DHT22;29544;52.018;5.810;2023-02-15T02:09:31;16.90;44.80
43884;DHT22;29544;52.018;5.810;2023-02-15T02:11:57;16.80;44.80
43884;DHT22;29544;52.018;5.810;2023-02-15T02:14:24;16.80;44.80
43884;DHT22;29544;52.018;5.810;2023-02-15T02:17:05;16.80;44.80
43884;DHT22;29544;52.018;5.810;2023-02-15T02:19:45;16.80;44.80
43884;DHT22;29544;52.018;5.810;2023-02-15T02:25:31;16.70;44.80
43884;DHT22;29544;52.018;5.810;2023-02-15T02:31:42;16.70;44.80
43884;DHT22;29544;52.018;5.810;2023-02-15T02:34:33;16.60;44.80
43884;DHT22;29544;52.018;5.810;2023-02-15T02:37:19;16.60;44.80
43884;DHT22;29544;52.018;5.810;2023-02-15T02:40:03;16.60;44.80
43884;DHT22;29544;52.018;5.810;2023-02-15T02:42:36;16.60;44.80
43884;DHT22;29544;52.018;5.810;2023-02-15T02:47:41;16.50;44.80
43884;DHT22;29544;52.018;5.810;2023-02-15T02:50:14;16.50;44.80
43884;DHT22;29544;52.018;5.810;2023-02-15T02:52:42;16.50;44.80
43884;DHT22;29544;52.018;5.810;2023-02-15T02:55:32;16.40;44.80
43884;DHT22;29544;52.018;5.810;2023-02-15T02:58:08;16.40;44.80
43884;DHT22;29544;52.018;5.810;2023-02-15T03:00:39;16.40;44.80
43884;DHT22;29544;52.018;5.810;2023-02-15T03:03:21;16.40;44.80
43884;DHT22;29544;52.018;5.810;2023-02-15T03:05:57;16.30;44.80
43884;DHT22;29544;52.018;5.810;2023-02-15T03:08:26;16.30;44.80
43884;DHT22;29544;52.018;5.810;2023-02-15T03:10:57;16.30;44.80
43884;DHT22;29544;52.018;5.810;2023-02-15T03:13:23;16.30;44.80
43884;DHT22;29544;52.018;5.810;2023-02-15T03:15:50;16.30;44.80
43884;DHT22;29544;52.018;5.810;2023-02-15T03:18:39;16.30;44.80
43884;DHT22;29544;52.018;5.810;2023-02-15T03:21:07;16.20;44.80
43884;DHT22;29544;52.018;5.810;2023-02-15T03:23:34;16.20;44.80
43884;DHT22;29544;52.018;5.810;2023-02-15T03:26:04;16.20;44.80
43884;DHT22;29544;52.018;5.810;2023-02-15T03:28:35;16.20;44.80
43884;DHT22;29544;52.018;5.810;2023-02-15T03:31:04;16.20;44.80
43884;DHT22;29544;52.018;5.810;2023-02-15T03:33:31;16.20;44.80
43884;DHT22;29544;52.018;5.810;2023-02-15T03:36:08;16.20;44.80
43884;DHT22;29544;52.018;5.810;2023-02-15T03:38:36;16.10;44.70
43884;DHT22;29544;52.018;5.810;2023-02-15T03:41:04;16.10;44.70
43884;DHT22;29544;52.018;5.810;2023-02-15T03:44:11;16.10;44.80
43884;DHT22;29544;52.018;5.810;2023-02-15T03:47:15;16.00;44.70
43884;DHT22;29544;52.018;5.810;2023-02-15T03:50:05;16.00;44.70
43884;DHT22;29544;52.018;5.810;2023-02-15T03:52:53;16.00;44.80
43884;DHT22;29544;52.018;5.810;2023-02-15T03:55:20;16.00;44.70
43884;DHT22;29544;52.018;5.810;2023-02-15T03:57:45;15.90;44.70
43884;DHT22;29544;52.018;5.810;2023-02-15T04:00:35;16.00;44.80
43884;DHT22;29544;52.018;5.810;2023-02-15T04:03:31;15.90;44.70
43884;DHT22;29544;52.018;5.810;2023-02-15T04:06:00;15.90;44.70
43884;DHT22;29544;52.018;5.810;2023-02-15T04:08:26;15.90;44.70
43884;DHT22;29544;52.018;5.810;2023-02-15T04:11:12;15.90;44.70
43884;DHT22;29544;52.018;5.810;2023-02-15T04:13:38;15.80;44.70
43884;DHT22;29544;52.018;5.810;2023-02-15T04:16:04;15.80;44.70
43884;DHT22;29544;52.018;5.810;2023-02-15T04:18:41;15.80;44.70
43884;DHT22;29544;52.018;5.810;2023-02-15T04:21:28;15.80;44.70
43884;DHT22;29544;52.018;5.810;2023-02-15T04:24:13;15.80;44.70
43884;DHT22;29544;52.018;5.810;2023-02-15T04:26:58;15.80;44.70
43884;DHT22;29544;52.018;5.810;2023-02-15T04:29:26;15.80;44.80
43884;DHT22;29544;52.018;5.810;2023-02-15T04:31:53;15.70;44.70
43884;DHT22;29544;52.018;5.810;2023-02-15T04:34:18;15.70;44.70
43884;DHT22;29544;52.018;5.810;2023-02-15T04:36:44;15.70;44.70
43884;DHT22;29544;52.018;5.810;2023-02-15T04:39:12;15.70;44.70
43884;DHT22;29544;52.018;5.810;2023-02-15T04:41:38;15.70;44.70
43884;DHT22;29544;52.018;5.810;2023-02-15T04:44:04;15.60;44.70
43884;DHT22;29544;52.018;5.810;2023-02-15T04:46:30;15.60;44.70
43884;DHT22;29544;52.018;5.810;2023-02-15T04:48:55;15.60;44.70
43884;DHT22;29544;52.018;5.810;2023-02-15T04:51:21;15.60;44.70
43884;DHT22;29544;52.018;5.810;2023-02-15T04:53:47;15.60;44.70
43884;DHT22;29544;52.018;5.810;2023-02-15T04:56:12;15.60;44.70
43884;DHT22;29544;52.018;5.810;2023-02-15T04:58:38;15.50;44.70
43884;DHT22;29544;52.018;5.810;2023-02-15T05:01:07;15.60;44.70
43884;DHT22;29544;52.018;5.810;2023-02-15T05:03:32;15.50;44.70
43884;DHT22;29544;52.018;5.810;2023-02-15T05:05:58;15.50;44.70
43884;DHT22;29544;52.018;5.810;2023-02-15T05:08:24;15.50;44.70
43884;DHT22;29544;52.018;5.810;2023-02-15T05:10:49;15.50;44.70
43884;DHT22;29544;52.018;5.810;2023-02-15T05:13:15;15.50;44.80
43884;DHT22;29544;52.018;5.810;2023-02-15T05:15:40;15.40;44.70
43884;DHT22;29544;52.018;5.810;2023-02-15T05:18:06;15.40;44.70
43884;DHT22;29544;52.018;5.810;2023-02-15T05:20:33;15.40;44.80
43884;DHT22;29544;52.018;5.810;2023-02-15T05:22:58;15.40;44.70
43884;DHT22;29544;52.018;5.810;2023-02-15T05:25:24;15.40;44.80
43884;DHT22;29544;52.018;5.810;2023-02-15T05:28:10;15.40;44.80
43884;DHT22;29544;52.018;5.810;2023-02-15T05:31:07;15.40;44.80
43884;DHT22;29544;52.018;5.810;2023-02-15T05:33:31;15.30;44.80
43884;DHT22;29544;52.018;5.810;2023-02-15T05:35:57;15.30;44.70
43884;DHT22;29544;52.018;5.810;2023-02-15T05:38:22;15.30;44.80
43884;DHT22;29544;52.018;5.810;2023-02-15T05:40:48;15.30;44.80
43884;DHT22;29544;52.018;5.810;2023-02-15T05:43:13;15.30;44.80
43884;DHT22;29544;52.018;5.810;2023-02-15T05:45:39;15.30;44.80
43884;DHT22;29544;52.018;5.810;2023-02-15T05:48:04;15.20;44.70
43884;DHT22;29544;52.018;5.810;2023-02-15T05:50:30;15.20;44.70
43884;DHT22;29544;52.018;5.810;2023-02-15T05:52:55;15.20;44.80
43884;DHT22;29544;52.018;5.810;2023-02-15T05:55:21;15.20;44.80
43884;DHT22;29544;52.018;5.810;2023-02-15T05:57:48;15.20;44.80
43884;DHT22;29544;52.018;5.810;2023-02-15T06:00:14;15.20;44.80
43884;DHT22;29544;52.018;5.810;2023-02-15T06:02:40;15.10;44.80
43884;DHT22;29544;52.018;5.810;2023-02-15T06:05:06;15.20;44.80
43884;DHT22;29544;52.018;5.810;2023-02-15T06:07:32;15.10;44.80
43884;DHT22;29544;52.018;5.810;2023-02-15T06:09:58;15.10;44.80
43884;DHT22;29544;52.018;5.810;2023-02-15T06:12:23;15.10;44.80
43884;DHT22;29544;52.018;5.810;2023-02-15T06:14:49;15.10;44.80
43884;DHT22;29544;52.018;5.810;2023-02-15T06:17:15;15.10;44.90
43884;DHT22;29544;52.018;5.810;2023-02-15T06:19:42;15.10;44.90
43884;DHT22;29544;52.018;5.810;2023-02-15T06:22:07;15.00;44.80
43884;DHT22;29544;52.018;5.810;2023-02-15T06:24:33;15.00;44.80
43884;DHT22;29544;52.018;5.810;2023-02-15T06:26:58;15.00;44.90
43884;DHT22;29544;52.018;5.810;2023-02-15T06:29:24;15.00;44.90
43884;DHT22;29544;52.018;5.810;2023-02-15T06:31:49;15.00;44.90
43884;DHT22;29544;52.018;5.810;2023-02-15T06:34:15;15.00;44.90
43884;DHT22;29544;52.018;5.810;2023-02-15T06:36:41;15.00;44.90
43884;DHT22;29544;52.018;5.810;2023-02-15T06:39:06;15.00;45.00
43884;DHT22;29544;52.018;5.810;2023-02-15T06:41:32;14.90;44.90
43884;DHT22;29544;52.018;5.810;2023-02-15T06:43:58;14.90;44.90
43884;DHT22;29544;52.018;5.810;2023-02-15T06:46:23;14.90;44.90
43884;DHT22;29544;52.018;5.810;2023-02-15T06:48:49;14.90;44.90
43884;DHT22;29544;52.018;5.810;2023-02-15T06:51:14;14.90;45.00
43884;DHT22;29544;52.018;5.810;2023-02-15T06:53:40;14.90;44.90
43884;DHT22;29544;52.018;5.810;2023-02-15T06:56:09;14.90;45.00
43884;DHT22;29544;52.018;5.810;2023-02-15T06:58:36;14.80;45.20
43884;DHT22;29544;52.018;5.810;2023-02-15T07:01:02;14.80;44.90
43884;DHT22;29544;52.018;5.810;2023-02-15T07:03:28;14.80;45.00
43884;DHT22;29544;52.018;5.810;2023-02-15T07:05:55;14.80;45.00
43884;DHT22;29544;52.018;5.810;2023-02-15T07:08:21;14.80;45.00
43884;DHT22;29544;52.018;5.810;2023-02-15T07:10:48;14.80;45.00
43884;DHT22;29544;52.018;5.810;2023-02-15T07:13:14;14.80;45.00
43884;DHT22;29544;52.018;5.810;2023-02-15T07:15:39;14.80;45.10
43884;DHT22;29544;52.018;5.810;2023-02-15T07:18:05;14.70;45.00
43884;DHT22;29544;52.018;5.810;2023-02-15T07:20:30;14.70;45.00
43884;DHT22;29544;52.018;5.810;2023-02-15T07:22:56;14.70;45.00
43884;DHT22;29544;52.018;5.810;2023-02-15T07:25:22;14.70;45.00
43884;DHT22;29544;52.018;5.810;2023-02-15T07:27:47;14.70;45.10
43884;DHT22;29544;52.018;5.810;2023-02-15T07:30:16;14.70;45.10
43884;DHT22;29544;52.018;5.810;2023-02-15T07:32:42;14.70;45.00
43884;DHT22;29544;52.018;5.810;2023-02-15T07:35:27;14.70;45.10
43884;DHT22;29544;52.018;5.810;2023-02-15T07:37:52;14.60;45.10
43884;DHT22;29544;52.018;5.810;2023-02-15T07:40:18;14.60;45.10
43884;DHT22;29544;52.018;5.810;2023-02-15T07:42:44;14.60;45.10
43884;DHT22;29544;52.018;5.810;2023-02-15T07:45:09;14.60;45.10
43884;DHT22;29544;52.018;5.810;2023-02-15T07:47:35;14.60;45.20
43884;DHT22;29544;52.018;5.810;2023-02-15T07:50:01;14.60;45.10
43884;DHT22;29544;52.018;5.810;2023-02-15T07:52:27;14.50;45.10
43884;DHT22;29544;52.018;5.810;2023-02-15T07:54:52;14.50;45.30
43884;DHT22;29544;52.018;5.810;2023-02-15T07:57:18;14.50;45.50
43884;DHT22;29544;52.018;5.810;2023-02-15T07:59:43;14.60;45.70
43884;DHT22;29544;52.018;5.810;2023-02-15T08:02:10;14.60;45.70
43884;DHT22;29544;52.018;5.810;2023-02-15T08:04:35;14.70;45.90
43884;DHT22;29544;52.018;5.810;2023-02-15T08:07:01;14.70;45.70
43884;DHT22;29544;52.018;5.810;2023-02-15T08:09:26;14.70;45.70
43884;DHT22;29544;52.018;5.810;2023-02-15T08:11:52;14.80;45.70
43884;DHT22;29544;52.018;5.810;2023-02-15T08:14:19;14.80;45.60
43884;DHT22;29544;52.018;5.810;2023-02-15T08:16:50;14.90;45.70
43884;DHT22;29544;52.018;5.810;2023-02-15T08:21:46;15.00;45.60
43884;DHT22;29544;52.018;5.810;2023-02-15T08:24:13;15.00;45.60
43884;DHT22;29544;52.018;5.810;2023-02-15T08:26:39;15.10;45.50
43884;DHT22;29544;52.018;5.810;2023-02-15T08:29:06;15.10;45.50
43884;DHT22;29544;52.018;5.810;2023-02-15T08:31:32;15.20;45.50
43884;DHT22;29544;52.018;5.810;2023-02-15T08:33:58;15.20;45.40
43884;DHT22;29544;52.018;5.810;2023-02-15T08:36:26;15.20;45.30
43884;DHT22;29544;52.018;5.810;2023-02-15T08:38:52;15.20;45.20
43884;DHT22;29544;52.018;5.810;2023-02-15T08:41:20;15.30;45.20
43884;DHT22;29544;52.018;5.810;2023-02-15T08:43:48;15.30;45.10
43884;DHT22;29544;52.018;5.810;2023-02-15T08:46:15;15.30;45.00
43884;DHT22;29544;52.018;5.810;2023-02-15T08:48:41;15.30;45.00
43884;DHT22;29544;52.018;5.810;2023-02-15T08:51:12;15.30;44.90
43884;DHT22;29544;52.018;5.810;2023-02-15T08:53:39;15.30;44.90
43884;DHT22;29544;52.018;5.810;2023-02-15T08:56:06;15.40;44.90
43884;DHT22;29544;52.018;5.810;2023-02-15T08:58:32;15.40;44.80
43884;DHT22;29544;52.018;5.810;2023-02-15T09:00:58;15.40;44.90
43884;DHT22;29544;52.018;5.810;2023-02-15T09:03:24;15.40;44.80
43884;DHT22;29544;52.018;5.810;2023-02-15T09:05:50;15.30;44.70
43884;DHT22;29544;52.018;5.810;2023-02-15T09:08:16;15.40;44.80
43884;DHT22;29544;52.018;5.810;2023-02-15T09:10:41;15.40;44.80
43884;DHT22;29544;52.018;5.810;2023-02-15T09:13:07;15.30;44.80
43884;DHT22;29544;52.018;5.810;2023-02-15T09:15:33;15.40;44.80
43884;DHT22;29544;52.018;5.810;2023-02-15T09:17:58;15.40;44.80
43884;DHT22;29544;52.018;5.810;2023-02-15T09:20:27;15.30;44.80
43884;DHT22;29544;52.018;5.810;2023-02-15T09:22:53;15.30;44.80
43884;DHT22;29544;52.018;5.810;2023-02-15T09:25:19;15.30;44.80
43884;DHT22;29544;52.018;5.810;2023-02-15T09:27:45;15.30;44.90
43884;DHT22;29544;52.018;5.810;2023-02-15T09:30:11;15.30;44.90
43884;DHT22;29544;52.018;5.810;2023-02-15T09:32:37;15.30;44.90
43884;DHT22;29544;52.018;5.810;2023-02-15T09:35:02;15.30;45.00
43884;DHT22;29544;52.018;5.810;2023-02-15T09:37:32;15.20;44.90
43884;DHT22;29544;52.018;5.810;2023-02-15T09:39:58;15.30;45.00
43884;DHT22;29544;52.018;5.810;2023-02-15T09:42:36;15.20;45.00
43884;DHT22;29544;52.018;5.810;2023-02-15T09:48:16;15.20;45.00
43884;DHT22;29544;52.018;5.810;2023-02-15T09:51:17;15.20;45.00
43884;DHT22;29544;52.018;5.810;2023-02-15T09:56:38;15.20;45.10
43884;DHT22;29544;52.018;5.810;2023-02-15T09:59:09;15.20;45.20
43884;DHT22;29544;52.018;5.810;2023-02-15T10:04:34;15.20;45.20
43884;DHT22;29544;52.018;5.810;2023-02-15T10:10:22;15.20;45.30
43884;DHT22;29544;52.018;5.810;2023-02-15T10:15:40;15.10;45.30
43884;DHT22;29544;52.018;5.810;2023-02-15T10:18:31;15.10;45.30
43884;DHT22;29544;52.018;5.810;2023-02-15T10:23:53;15.10;45.40
43884;DHT22;29544;52.018;5.810;2023-02-15T10:26:56;15.10;45.40
43884;DHT22;29544;52.018;5.810;2023-02-15T10:29:38;15.10;45.40
43884;DHT22;29544;52.018;5.810;2023-02-15T10:34:50;15.10;45.40
43884;DHT22;29544;52.018;5.810;2023-02-15T10:37:46;15.10;45.50
43884;DHT22;29544;52.018;5.810;2023-02-15T10:46:30;15.20;45.70
43884;DHT22;29544;52.018;5.810;2023-02-15T11:02:57;15.20;45.90
43884;DHT22;29544;52.018;5.810;2023-02-15T11:05:52;15.20;45.90
43884;DHT22;29544;52.018;5.810;2023-02-15T11:08:24;15.20;46.50
43884;DHT22;29544;52.018;5.810;2023-02-15T11:10:55;15.20;46.50
43884;DHT22;29544;52.018;5.810;2023-02-15T11:13:24;15.20;46.20
43884;DHT22;29544;52.018;5.810;2023-02-15T11:15:56;15.20;46.20
43884;DHT22;29544;52.018;5.810;2023-02-15T11:21:17;15.30;46.30
43884;DHT22;29544;52.018;5.810;2023-02-15T11:23:46;15.30;46.30
43884;DHT22;29544;52.018;5.810;2023-02-15T11:28:54;15.30;46.30
43884;DHT22;29544;52.018;5.810;2023-02-15T11:31:26;15.40;46.30
43884;DHT22;29544;52.018;5.810;2023-02-15T11:33:59;15.40;46.30
43884;DHT22;29544;52.018;5.810;2023-02-15T11:36:34;15.40;46.30
43884;DHT22;29544;52.018;5.810;2023-02-15T11:39:05;15.40;46.30
43884;DHT22;29544;52.018;5.810;2023-02-15T11:41:38;15.40;46.30
43884;DHT22;29544;52.018;5.810;2023-02-15T11:44:20;15.50;46.40
43884;DHT22;29544;52.018;5.810;2023-02-15T11:46:47;15.50;46.30
43884;DHT22;29544;52.018;5.810;2023-02-15T11:49:30;15.50;46.40
43884;DHT22;29544;52.018;5.810;2023-02-15T11:51:57;15.50;46.40
43884;DHT22;29544;52.018;5.810;2023-02-15T11:54:28;15.60;46.50
43884;DHT22;29544;52.018;5.810;2023-02-15T11:57:04;15.60;46.50
43884;DHT22;29544;52.018;5.810;2023-02-15T11:59:34;15.60;46.40
43884;DHT22;29544;52.018;5.810;2023-02-15T12:02:02;15.60;46.50
43884;DHT22;29544;52.018;5.810;2023-02-15T12:04:32;15.60;46.40
43884;DHT22;29544;52.018;5.810;2023-02-15T12:07:26;15.60;46.40
43884;DHT22;29544;52.018;5.810;2023-02-15T12:12:39;15.70;46.40
43884;DHT22;29544;52.018;5.810;2023-02-15T12:15:07;15.70;46.50
43884;DHT22;29544;52.018;5.810;2023-02-15T12:17:39;15.70;46.40
43884;DHT22;29544;52.018;5.810;2023-02-15T12:22:46;15.70;46.50
43884;DHT22;29544;52.018;5.810;2023-02-15T12:25:26;15.80;46.50
43884;DHT22;29544;52.018;5.810;2023-02-15T12:27:52;15.80;46.50
43884;DHT22;29544;52.018;5.810;2023-02-15T12:30:32;15.90;46.50
43884;DHT22;29544;52.018;5.810;2023-02-15T12:33:17;15.90;46.50
43884;DHT22;29544;52.018;5.810;2023-02-15T12:35:59;15.90;46.50
43884;DHT22;29544;52.018;5.810;2023-02-15T12:38:26;15.90;46.40
43884;DHT22;29544;52.018;5.810;2023-02-15T12:40:58;16.00;46.40
43884;DHT22;29544;52.018;5.810;2023-02-15T12:43:35;16.00;46.40
43884;DHT22;29544;52.018;5.810;2023-02-15T12:46:23;16.00;46.40
43884;DHT22;29544;52.018;5.810;2023-02-15T12:51:51;16.10;46.40
43884;DHT22;29544;52.018;5.810;2023-02-15T12:54:35;16.10;46.40
43884;DHT22;29544;52.018;5.810;2023-02-15T12:57:32;16.10;46.30
43884;DHT22;29544;52.018;5.810;2023-02-15T13:00:04;16.20;46.30
43884;DHT22;29544;52.018;5.810;2023-02-15T13:07:38;16.20;46.20
43884;DHT22;29544;52.018;5.810;2023-02-15T13:10:32;16.30;46.20
43884;DHT22;29544;52.018;5.810;2023-02-15T13:12:59;16.30;46.20
43884;DHT22;29544;52.018;5.810;2023-02-15T13:15:35;16.30;46.10
43884;DHT22;29544;52.018;5.810;2023-02-15T13:18:02;16.30;46.10
43884;DHT22;29544;52.018;5.810;2023-02-15T13:20:30;16.30;46.40
43884;DHT22;29544;52.018;5.810;2023-02-15T13:23:03;16.40;46.90
43884;DHT22;29544;52.018;5.810;2023-02-15T13:25:34;16.40;47.50
43884;DHT22;29544;52.018;5.810;2023-02-15T13:28:06;16.40;47.10
43884;DHT22;29544;52.018;5.810;2023-02-15T13:30:38;16.40;46.60
43884;DHT22;29544;52.018;5.810;2023-02-15T13:33:22;16.40;46.70
43884;DHT22;29544;52.018;5.810;2023-02-15T13:36:00;16.40;46.60
43884;DHT22;29544;52.018;5.810;2023-02-15T13:38:55;16.40;46.50
43884;DHT22;29544;52.018;5.810;2023-02-15T13:41:46;16.30;46.40
43884;DHT22;29544;52.018;5.810;2023-02-15T13:55:44;16.30;46.40
43884;DHT22;29544;52.018;5.810;2023-02-15T14:25:53;16.40;47.70
43884;DHT22;29544;52.018;5.810;2023-02-15T14:28:43;16.40;47.60
43884;DHT22;29544;52.018;5.810;2023-02-15T14:31:13;16.40;47.60
43884;DHT22;29544;52.018;5.810;2023-02-15T14:33:43;16.50;47.70
43884;DHT22;29544;52.018;5.810;2023-02-15T14:36:16;16.40;47.60
43884;DHT22;29544;52.018;5.810;2023-02-15T14:39:06;16.50;47.60
43884;DHT22;29544;52.018;5.810;2023-02-15T14:41:58;16.50;47.60
43884;DHT22;29544;52.018;5.810;2023-02-15T14:44:39;16.50;47.60
43884;DHT22;29544;52.018;5.810;2023-02-15T14:47:10;16.50;47.60
43884;DHT22;29544;52.018;5.810;2023-02-15T14:49:40;16.50;47.50
43884;DHT22;29544;52.018;5.810;2023-02-15T14:52:06;16.50;47.50
43884;DHT22;29544;52.018;5.810;2023-02-15T14:59:53;16.40;47.20
43884;DHT22;29544;52.018;5.810;2023-02-15T15:07:52;16.30;47.00
43884;DHT22;29544;52.018;5.810;2023-02-15T15:12:47;16.30;47.10
43884;DHT22;29544;52.018;5.810;2023-02-15T15:15:39;16.30;47.10
43884;DHT22;29544;52.018;5.810;2023-02-15T15:18:04;16.30;47.10
43884;DHT22;29544;52.018;5.810;2023-02-15T15:20:49;16.30;47.10
43884;DHT22;29544;52.018;5.810;2023-02-15T15:36:47;16.10;47.00
43884;DHT22;29544;52.018;5.810;2023-02-15T15:42:49;16.10;47.10
43884;DHT22;29544;52.018;5.810;2023-02-15T15:48:35;16.10;47.10
43884;DHT22;29544;52.018;5.810;2023-02-15T15:51:18;16.10;47.20
43884;DHT22;29544;52.018;5.810;2023-02-15T15:53:47;16.10;47.20
43884;DHT22;29544;52.018;5.810;2023-02-15T15:56:22;16.00;47.20
43884;DHT22;29544;52.018;5.810;2023-02-15T15:59:02;16.00;47.20
43884;DHT22;29544;52.018;5.810;2023-02-15T16:01:31;16.00;47.20
43884;DHT22;29544;52.018;5.810;2023-02-15T16:04:00;16.00;47.20
43884;DHT22;29544;52.018;5.810;2023-02-15T16:06:34;15.90;47.20
43884;DHT22;29544;52.018;5.810;2023-02-15T16:11:43;15.90;47.30
43884;DHT22;29544;52.018;5.810;2023-02-15T16:14:14;15.90;47.40
43884;DHT22;29544;52.018;5.810;2023-02-15T16:16:41;16.00;47.50
43884;DHT22;29544;52.018;5.810;2023-02-15T16:19:21;16.00;47.40
43884;DHT22;29544;52.018;5.810;2023-02-15T16:21:48;16.00;47.50
43884;DHT22;29544;52.018;5.810;2023-02-15T16:24:25;16.10;47.50
43884;DHT22;29544;52.018;5.810;2023-02-15T16:27:14;16.10;47.60
43884;DHT22;29544;52.018;5.810;2023-02-15T16:29:43;16.20;47.80
43884;DHT22;29544;52.018;5.810;2023-02-15T16:32:23;16.30;47.80
43884;DHT22;29544;52.018;5.810;2023-02-15T16:35:01;16.30;47.80
43884;DHT22;29544;52.018;5.810;2023-02-15T16:37:36;16.40;47.80
43884;DHT22;29544;52.018;5.810;2023-02-15T16:40:02;16.50;47.70
43884;DHT22;29544;52.018;5.810;2023-02-15T16:42:28;16.50;47.60
43884;DHT22;29544;52.018;5.810;2023-02-15T16:45:07;16.60;47.70
43884;DHT22;29544;52.018;5.810;2023-02-15T16:47:40;16.60;47.50
43884;DHT22;29544;52.018;5.810;2023-02-15T16:50:20;16.60;47.50
43884;DHT22;29544;52.018;5.810;2023-02-15T16:52:46;16.70;47.40
43884;DHT22;29544;52.018;5.810;2023-02-15T16:55:27;16.80;47.50
43884;DHT22;29544;52.018;5.810;2023-02-15T16:58:00;16.80;47.90
43884;DHT22;29544;52.018;5.810;2023-02-15T17:00:36;16.80;47.40
43884;DHT22;29544;52.018;5.810;2023-02-15T17:03:06;16.90;47.40
43884;DHT22;29544;52.018;5.810;2023-02-15T17:05:46;16.90;47.20
43884;DHT22;29544;52.018;5.810;2023-02-15T17:08:27;17.00;47.30
43884;DHT22;29544;52.018;5.810;2023-02-15T17:11:16;17.10;47.30
43884;DHT22;29544;52.018;5.810;2023-02-15T17:16:30;17.20;47.40
43884;DHT22;29544;52.018;5.810;2023-02-15T17:18:57;17.20;47.40
43884;DHT22;29544;52.018;5.810;2023-02-15T17:21:48;17.30;47.30
43884;DHT22;29544;52.018;5.810;2023-02-15T17:24:35;17.30;47.20
43884;DHT22;29544;52.018;5.810;2023-02-15T17:27:12;17.40;47.20
43884;DHT22;29544;52.018;5.810;2023-02-15T17:29:43;17.40;47.10
43884;DHT22;29544;52.018;5.810;2023-02-15T17:32:17;17.40;47.00
43884;DHT22;29544;52.018;5.810;2023-02-15T17:42:49;17.50;46.80
43884;DHT22;29544;52.018;5.810;2023-02-15T17:45:15;17.60;46.80
43884;DHT22;29544;52.018;5.810;2023-02-15T17:47:41;17.60;46.80
43884;DHT22;29544;52.018;5.810;2023-02-15T17:50:19;17.60;46.70
43884;DHT22;29544;52.018;5.810;2023-02-15T17:52:45;17.70;46.80
43884;DHT22;29544;52.018;5.810;2023-02-15T17:55:14;17.60;46.60
43884;DHT22;29544;52.018;5.810;2023-02-15T17:57:59;17.70;46.60
43884;DHT22;29544;52.018;5.810;2023-02-15T18:00:24;17.70;46.60
43884;DHT22;29544;52.018;5.810;2023-02-15T18:03:12;17.70;46.70
43884;DHT22;29544;52.018;5.810;2023-02-15T18:05:57;17.80;46.70
43884;DHT22;29544;52.018;5.810;2023-02-15T18:08:42;17.80;46.80
43884;DHT22;29544;52.018;5.810;2023-02-15T18:11:26;17.90;46.90
43884;DHT22;29544;52.018;5.810;2023-02-15T18:14:06;18.00;46.90
43884;DHT22;29544;52.018;5.810;2023-02-15T18:16:37;18.00;46.90
43884;DHT22;29544;52.018;5.810;2023-02-15T18:19:06;18.10;46.90
43884;DHT22;29544;52.018;5.810;2023-02-15T18:21:34;18.20;46.80
43884;DHT22;29544;52.018;5.810;2023-02-15T18:24:01;18.20;46.80
43884;DHT22;29544;52.018;5.810;2023-02-15T18:26:27;18.30;46.60
43884;DHT22;29544;52.018;5.810;2023-02-15T18:28:53;18.40;46.70
43884;DHT22;29544;52.018;5.810;2023-02-15T18:31:19;18.50;46.80
43884;DHT22;29544;52.018;5.810;2023-02-15T18:34:03;18.50;46.80
43884;DHT22;29544;52.018;5.810;2023-02-15T18:36:33;18.60;46.80